Terminal Aerodrome Forecast
Issued by NWS

Current Version | Previous Version | Text Only | Print | Product List | Glossary Off
Versions: 1 2 3 4 5 6 7 8 9 10 11 12 13

978
FTUS41 KILN 242335
TAFLUK
TAF
KLUK 242335Z 2500/2524 09012KT P6SM BKN050
     FM250200 09007KT P6SM OVC040
     FM250800 10004KT 5SM BR OVC025
     FM251300 13006KT P6SM BKN035
     FM251600 14007KT P6SM BKN050=

USA.gov is the U.S. government's official web portal to all federal, state and local government web resources and services.